Time;durP1;ratioP1;P1;durP2;ratioP2;P2;SDS_P1;SDS_P2;PMS_P1;PMS_P2;Temp;Humidity;BMP_temperature;BMP_pressure;BME280_temperature;BME280_humidity;BME280_pressure;Samples;Min_cycle;Max_cycle;Signal;HPM_P1;HPM_P2
2021/12/09 00:01:43;;;;;;;15.93;8.07;;;;;;;-0.13;82.82;99924.69;5084559;28;20138;-69
2021/12/09 00:04:12;;;;;;;21.73;10.63;;;;;;;-0.11;82.65;99929.84;5084380;28;20725;-68
2021/12/09 00:06:40;;;;;;;27.63;13.00;;;;;;;-0.16;82.97;99948.41;5084080;28;20024;-68
2021/12/09 00:09:09;;;;;;;28.90;12.43;;;;;;;-0.07;82.43;99929.97;5083941;28;20057;-68
2021/12/09 00:11:42;;;;;;;22.42;9.35;;;;;;;0.07;81.78;99932.00;5084278;28;20021;-67
2021/12/09 00:14:10;;;;;;;22.30;10.40;;;;;;;-0.01;81.58;99929.25;5084416;28;20082;-67
2021/12/09 00:16:36;;;;;;;19.92;8.60;;;;;;;0.04;81.67;99929.38;5083815;28;20028;-67
2021/12/09 00:19:01;;;;;;;27.27;13.55;;;;;;;-0.12;82.17;99944.28;5083905;28;20028;-68
2021/12/09 00:21:26;;;;;;;26.38;11.85;;;;;;;-0.07;82.49;99936.75;5083811;28;20027;-67
2021/12/09 00:23:52;;;;;;;17.63;8.18;;;;;;;0.04;82.00;99947.25;5083812;28;20711;-68
2021/12/09 00:26:17;;;;;;;30.73;13.40;;;;;;;-0.08;82.32;99932.47;5082263;28;20191;-68
2021/12/09 00:28:43;;;;;;;26.13;10.00;;;;;;;-0.05;82.41;99937.66;5083950;28;20095;-68
2021/12/09 00:31:09;;;;;;;19.95;10.43;;;;;;;0.22;81.09;99934.97;5083565;28;20465;-67
2021/12/09 00:33:41;;;;;;;31.05;13.98;;;;;;;0.14;81.20;99943.25;5083851;28;20029;-68
2021/12/09 00:36:07;;;;;;;19.48;8.32;;;;;;;0.22;80.75;99914.53;5082155;28;20016;-68
2021/12/09 00:38:42;;;;;;;29.42;13.52;;;;;;;0.10;81.14;99925.31;5083723;28;20047;-67
2021/12/09 00:41:16;;;;;;;25.27;10.32;;;;;;;0.02;81.78;99938.69;5083541;28;20029;-67
2021/12/09 00:43:42;;;;;;;27.35;13.65;;;;;;;-0.06;82.40;99936.78;5083568;28;20031;-67
2021/12/09 00:46:09;;;;;;;30.95;14.75;;;;;;;0.02;82.37;99938.69;5083339;28;20115;-67
2021/12/09 00:48:35;;;;;;;21.33;10.75;;;;;;;0.16;81.52;99929.69;5083456;28;20046;-67
2021/12/09 00:51:02;;;;;;;16.92;7.93;;;;;;;0.21;81.15;99915.38;5083022;28;20084;-68
2021/12/09 00:53:27;;;;;;;25.33;9.90;;;;;;;0.23;80.85;99920.50;5083630;28;20020;-68
2021/12/09 00:55:53;;;;;;;26.48;11.13;;;;;;;-0.01;81.78;99940.34;5083234;28;20020;-68
2021/12/09 00:58:19;;;;;;;21.17;10.13;;;;;;;-0.06;81.85;99915.50;5083440;28;20074;-68
2021/12/09 01:00:45;;;;;;;19.73;8.75;;;;;;;-0.04;81.73;99911.31;5083442;28;20055;-68
2021/12/09 01:03:10;;;;;;;20.48;11.27;;;;;;;0.05;81.40;99926.00;5083281;28;20029;-67
2021/12/09 01:05:36;;;;;;;22.73;11.88;;;;;;;-0.03;81.63;99926.66;5083126;28;20032;-68
2021/12/09 01:08:02;;;;;;;24.70;9.35;;;;;;;0.18;80.31;99922.06;5083187;28;20044;-68
2021/12/09 01:10:28;;;;;;;19.80;9.77;;;;;;;0.08;80.80;99931.19;5083293;28;20037;-68
2021/12/09 01:12:54;;;;;;;25.98;11.00;;;;;;;-0.01;81.00;99921.59;5083287;28;20024;-67
2021/12/09 01:15:20;;;;;;;24.27;12.95;;;;;;;-0.07;81.29;99929.09;5082880;28;20077;-68
2021/12/09 01:17:47;;;;;;;22.00;10.63;;;;;;;-0.06;81.68;99926.56;5083118;28;20070;-68
2021/12/09 01:20:16;;;;;;;29.35;12.48;;;;;;;-0.11;82.27;99937.50;5082809;28;20088;-66
2021/12/09 01:22:43;;;;;;;27.70;12.70;;;;;;;-0.13;82.23;99924.69;5083045;28;20071;-68
2021/12/09 01:25:11;;;;;;;24.95;11.35;;;;;;;-0.09;82.12;99934.16;5082742;28;20047;-68
2021/12/09 01:27:41;;;;;;;23.15;12.68;;;;;;;-0.05;81.29;99938.50;5083063;28;20025;-66
2021/12/09 01:30:12;;;;;;;24.45;12.45;;;;;;;0.02;80.82;99933.59;5082231;28;20455;-66
2021/12/09 01:32:42;;;;;;;19.23;9.15;;;;;;;-0.07;81.45;99936.75;5083008;28;20104;-66
2021/12/09 01:35:09;;;;;;;22.98;10.45;;;;;;;-0.17;82.08;99928.84;5082629;28;20029;-66
2021/12/09 01:37:35;;;;;;;27.27;13.55;;;;;;;-0.15;82.16;99936.53;5082987;28;20076;-67
2021/12/09 01:40:03;;;;;;;19.00;8.82;;;;;;;-0.04;81.15;99909.63;5082733;28;20020;-67
2021/12/09 01:42:28;;;;;;;20.75;9.57;;;;;;;-0.08;81.23;99922.25;5082679;28;20027;-67
2021/12/09 01:44:53;;;;;;;29.30;12.15;;;;;;;-0.01;80.57;99919.03;5082598;28;20020;-66
2021/12/09 01:47:19;;;;;;;22.40;11.55;;;;;;;-0.04;80.87;99918.97;5082586;28;20032;-66
2021/12/09 01:49:44;;;;;;;18.10;7.40;;;;;;;0.03;80.20;99925.09;5082824;28;20051;-66
2021/12/09 01:52:09;;;;;;;22.95;10.30;;;;;;;-0.07;80.57;99918.88;5082615;28;20028;-67
2021/12/09 01:54:35;;;;;;;23.38;12.25;;;;;;;-0.18;81.25;99916.91;5082801;28;20111;-66
2021/12/09 01:57:00;;;;;;;19.60;9.18;;;;;;;-0.07;81.06;99908.66;5082671;28;20036;-67
2021/12/09 01:59:25;;;;;;;26.52;11.80;;;;;;;-0.11;80.86;99900.06;5083015;28;20035;-67
2021/12/09 02:01:51;;;;;;;21.50;10.60;;;;;;;0.08;79.40;99903.13;5081463;28;20044;-67
2021/12/09 02:04:17;;;;;;;15.98;8.23;;;;;;;0.22;78.26;99896.66;5083107;28;20033;-67
2021/12/09 02:06:43;;;;;;;15.27;6.43;;;;;;;0.08;78.56;99900.56;5082846;28;20027;-67
2021/12/09 02:09:11;;;;;;;19.33;10.60;;;;;;;-0.15;79.42;99895.72;5082542;28;20048;-67
2021/12/09 02:11:38;;;;;;;23.90;11.77;;;;;;;-0.20;80.21;99897.25;5082683;28;20039;-67
2021/12/09 02:14:05;;;;;;;27.55;12.93;;;;;;;-0.18;80.47;99903.28;5082710;28;20017;-67
2021/12/09 02:16:30;;;;;;;24.88;13.55;;;;;;;-0.21;81.02;99896.41;5082625;28;20025;-67
2021/12/09 02:18:56;;;;;;;9.95;6.55;;;;;;;0.07;79.03;99884.38;5082773;28;20029;-67
2021/12/09 02:21:28;;;;;;;22.48;10.20;;;;;;;-0.01;78.36;99891.84;5082489;28;20020;-66
2021/12/09 02:23:55;;;;;;;;;;;;;;;-0.06;78.73;99895.94;5082886;28;20024;-67
2021/12/09 02:26:24;;;;;;;19.30;9.30;;;;;;;0.04;78.20;99901.28;5080994;28;19931;-67
2021/12/09 02:28:52;;;;;;;12.10;6.15;;;;;;;-0.02;77.58;99905.41;5082511;28;20028;-67
2021/12/09 02:31:17;;;;;;;12.13;6.60;;;;;;;-0.02;77.65;99905.41;5082349;28;20051;-65
2021/12/09 02:33:43;;;;;;;19.52;8.63;;;;;;;-0.14;78.33;99905.06;5082358;28;20016;-67
2021/12/09 02:36:08;;;;;;;20.40;9.80;;;;;;;-0.17;78.38;99907.53;5082387;28;20024;-67
2021/12/09 02:38:42;;;;;;;16.55;7.65;;;;;;;-0.18;78.01;99906.72;5082521;28;20496;-67
2021/12/09 02:41:09;;;;;;;16.83;8.18;;;;;;;-0.09;77.25;99910.31;5083934;28;20088;-66
2021/12/09 02:43:35;;;;;;;26.13;12.30;;;;;;;-0.24;78.52;99926.06;5086025;28;20098;-67
2021/12/09 02:46:01;;;;;;;16.35;7.55;;;;;;;-0.31;79.04;99918.25;5085921;28;20025;-67
2021/12/09 02:48:26;;;;;;;22.38;8.68;;;;;;;-0.09;77.61;99908.63;5086311;28;20024;-68
2021/12/09 02:50:53;;;;;;;12.20;8.30;;;;;;;-0.07;76.87;99891.69;5085887;28;20051;-67
2021/12/09 02:53:21;;;;;;;17.10;8.10;;;;;;;0.01;76.08;99902.09;5084450;28;20032;-68
2021/12/09 02:55:46;;;;;;;8.30;5.30;;;;;;;0.02;76.06;99892.75;5085807;28;20032;-67
2021/12/09 02:58:13;;;;;;;14.88;7.78;;;;;;;-0.02;75.74;99884.16;5085999;28;20365;-67
2021/12/09 03:00:59;;;;;;;13.43;7.95;;;;;;;0.04;75.63;99881.75;5084524;28;20044;-67
2021/12/09 03:03:25;;;;;;;16.23;7.97;;;;;;;-0.16;76.23;99894.00;5085693;28;20404;-67
2021/12/09 03:05:53;;;;;;;18.70;8.27;;;;;;;-0.09;75.87;99895.88;5085565;28;20033;-67
2021/12/09 03:08:24;;;;;;;24.88;7.78;;;;;;;-0.15;76.53;99898.25;5085546;28;20048;-67
2021/12/09 03:10:49;;;;;;;18.25;8.68;;;;;;;-0.21;76.15;99885.34;5085636;28;20036;-67
2021/12/09 03:13:16;;;;;;;17.25;7.70;;;;;;;-0.29;76.93;99888.53;5085655;28;20122;-68
2021/12/09 03:15:42;;;;;;;18.02;7.13;;;;;;;-0.28;77.32;99887.72;5085571;28;20017;-67
2021/12/09 03:18:07;;;;;;;27.27;12.75;;;;;;;-0.38;77.83;99885.72;5085654;28;20024;-67
2021/12/09 03:20:33;;;;;;;11.88;6.22;;;;;;;-0.24;77.16;99898.88;5085292;28;20052;-67
2021/12/09 03:22:58;;;;;;;16.70;8.20;;;;;;;-0.08;76.15;99889.94;5085393;28;20024;-67
2021/12/09 03:25:23;;;;;;;27.90;11.88;;;;;;;-0.29;77.14;99891.06;5083926;28;20038;-66
2021/12/09 03:27:49;;;;;;;18.88;10.10;;;;;;;-0.30;77.48;99902.13;5085503;28;20111;-67
2021/12/09 03:30:17;;;;;;;26.92;9.73;;;;;;;-0.27;77.52;99898.78;5085004;28;20028;-67
2021/12/09 03:32:43;;;;;;;21.02;9.55;;;;;;;-0.18;77.19;99900.72;5085232;28;20134;-67
2021/12/09 03:35:10;;;;;;;17.70;7.85;;;;;;;-0.17;77.03;99907.53;5084783;28;20046;-66
2021/12/09 03:37:35;;;;;;;18.80;7.90;;;;;;;-0.17;77.33;99897.34;5085017;28;20016;-67
2021/12/09 03:40:02;;;;;;;21.75;9.18;;;;;;;-0.16;77.41;99888.88;5085144;28;20034;-67
2021/12/09 03:42:30;;;;;;;23.58;11.82;;;;;;;-0.24;78.17;99903.13;5084782;28;20066;-67
2021/12/09 03:44:57;;;;;;;12.07;6.38;;;;;;;-0.04;76.81;99891.75;5084946;28;20039;-68
2021/12/09 03:47:25;;;;;;;15.98;7.93;;;;;;;-0.22;78.06;99888.72;5084875;28;20078;-67
2021/12/09 03:49:51;;;;;;;17.70;8.05;;;;;;;-0.04;77.28;99894.31;5084888;28;20450;-67
2021/12/09 03:52:17;;;;;;;28.35;11.13;;;;;;;-0.19;78.28;99891.34;5084120;28;20024;-68
2021/12/09 03:54:44;;;;;;;23.33;10.45;;;;;;;-0.20;78.14;99898.13;5084899;28;20024;-68
2021/12/09 03:57:11;;;;;;;23.63;11.73;;;;;;;-0.27;78.95;99907.28;5084574;28;20476;-67
2021/12/09 03:59:37;;;;;;;29.83;11.57;;;;;;;-0.19;79.00;99909.22;5084607;28;20055;-68
2021/12/09 04:02:04;;;;;;;23.27;10.20;;;;;;;-0.22;78.79;99909.13;5084707;28;20048;-67
2021/12/09 04:04:30;;;;;;;17.80;7.40;;;;;;;-0.04;77.97;99918.97;5084564;28;20110;-68
2021/12/09 04:06:55;;;;;;;14.63;7.72;;;;;;;-0.09;78.33;99934.16;5084344;28;20030;-68
2021/12/09 04:09:22;;;;;;;19.00;8.88;;;;;;;-0.05;78.26;99925.75;5083104;28;20084;-67
2021/12/09 04:11:49;;;;;;;24.70;11.40;;;;;;;-0.19;79.25;99925.38;5084629;28;20202;-67
2021/12/09 04:14:15;;;;;;;23.45;12.00;;;;;;;-0.15;79.01;99922.09;5084417;28;20032;-67
2021/12/09 04:16:41;;;;;;;19.70;11.57;;;;;;;-0.13;79.34;99924.69;5084316;28;20040;-67
2021/12/09 04:19:08;;;;;;;26.38;13.43;;;;;;;-0.09;79.23;99929.03;5084285;28;20032;-67
2021/12/09 04:21:35;;;;;;;25.02;12.73;;;;;;;-0.16;79.85;99922.06;5084117;28;20027;-67
2021/12/09 04:24:07;;;;;;;21.85;12.05;;;;;;;-0.11;79.94;99929.84;5084168;28;20028;-66
2021/12/09 04:26:33;;;;;;;26.52;13.23;;;;;;;-0.10;80.23;99934.97;5084078;28;20032;-67
2021/12/09 04:28:58;;;;;;;22.52;10.82;;;;;;;-0.06;80.06;99934.22;5084075;28;20020;-67
2021/12/09 04:31:23;;;;;;;20.77;9.30;;;;;;;-0.02;79.87;99928.38;5082474;28;20050;-67
2021/12/09 04:33:49;;;;;;;28.95;11.40;;;;;;;-0.03;79.61;99921.56;5084144;28;20122;-67
2021/12/09 04:36:14;;;;;;;24.85;11.55;;;;;;;-0.03;79.56;99920.69;5083659;28;20040;-67
2021/12/09 04:38:40;;;;;;;26.25;12.38;;;;;;;-0.05;79.66;99919.78;5084026;28;20028;-68
2021/12/09 04:41:05;;;;;;;21.45;10.68;;;;;;;0.02;79.38;99938.69;5083928;28;20024;-68
2021/12/09 04:43:30;;;;;;;24.85;12.27;;;;;;;0.01;79.51;99948.03;5083822;28;20048;-67
2021/12/09 04:45:59;;;;;;;20.83;8.57;;;;;;;0.08;78.92;99941.41;5083738;28;20024;-68
2021/12/09 04:48:25;;;;;;;27.02;13.88;;;;;;;-0.01;79.52;99937.78;5082449;28;20021;-67
2021/12/09 04:50:51;;;;;;;25.55;13.95;;;;;;;0.01;79.77;99942.94;5083652;28;20077;-67
2021/12/09 04:53:16;;;;;;;25.48;12.10;;;;;;;0.03;79.92;99951.50;5083570;28;20021;-67
2021/12/09 04:55:41;;;;;;;21.58;9.93;;;;;;;-0.02;79.87;99932.63;5083288;28;20024;-68
2021/12/09 04:58:07;;;;;;;26.67;13.10;;;;;;;-0.04;79.55;99932.59;5083365;28;20073;-69
2021/12/09 05:00:38;;;;;;;23.75;14.57;;;;;;;0.01;79.77;99936.94;5083591;28;20024;-69
2021/12/09 05:03:08;;;;;;;15.63;7.20;;;;;;;0.12;79.69;99953.41;5083459;28;20127;-69
2021/12/09 05:05:38;;;;;;;29.02;11.32;;;;;;;0.09;79.71;99950.78;5081072;28;20117;-68
2021/12/09 05:08:06;;;;;;;27.30;12.43;;;;;;;0.11;79.87;99951.72;5083477;28;20055;-68
2021/12/09 05:10:40;;;;;;;25.58;12.88;;;;;;;0.13;79.95;99955.13;5083050;28;20032;-68
2021/12/09 05:13:05;;;;;;;25.85;12.60;;;;;;;0.16;79.85;99951.81;5083601;28;20021;-69
2021/12/09 05:15:32;;;;;;;26.05;12.75;;;;;;;0.05;79.82;99931.13;5083713;28;20024;-69
2021/12/09 05:17:58;;;;;;;13.48;6.75;;;;;;;0.23;79.58;99952.03;5083571;28;20021;-67
2021/12/09 05:20:23;;;;;;;24.05;10.65;;;;;;;0.21;79.61;99947.69;5083282;28;20381;-74
2021/12/09 05:22:48;;;;;;;25.20;11.32;;;;;;;0.27;78.84;99945.31;5081562;28;20016;-64
2021/12/09 05:25:14;;;;;;;27.50;12.90;;;;;;;0.19;79.40;99946.81;5082764;28;20139;-64
2021/12/09 05:27:39;;;;;;;29.60;13.25;;;;;;;0.20;79.47;99941.72;5082935;28;20029;-66
2021/12/09 05:30:11;;;;;;;29.33;13.98;;;;;;;0.21;79.50;99937.47;5082725;28;20460;-65
2021/12/09 05:32:37;;;;;;;27.45;11.88;;;;;;;0.23;79.53;99956.25;5083017;28;20032;-70
2021/12/09 05:35:02;;;;;;;19.10;10.45;;;;;;;0.23;79.52;99949.47;5082896;28;20047;-69
2021/12/09 05:37:28;;;;;;;18.95;7.75;;;;;;;0.36;78.53;99948.09;5082652;28;20478;-69
2021/12/09 05:39:57;;;;;;;19.00;10.20;;;;;;;0.29;78.83;99945.34;5082738;28;20040;-70
2021/12/09 05:42:24;;;;;;;18.73;8.90;;;;;;;0.27;78.51;99934.22;5082798;28;20024;-75
2021/12/09 05:44:50;;;;;;;15.15;8.75;;;;;;;0.41;77.89;99958.44;5081018;28;20488;-67
2021/12/09 05:47:15;;;;;;;23.42;9.02;;;;;;;0.21;78.51;99947.69;5082581;28;20031;-69
2021/12/09 05:49:44;;;;;;;17.42;8.10;;;;;;;0.25;78.86;99957.16;5082748;28;20021;-67
2021/12/09 05:52:10;;;;;;;20.23;8.13;;;;;;;0.32;78.09;99940.34;5081582;28;20040;-70
2021/12/09 05:54:36;;;;;;;26.58;12.07;;;;;;;0.34;77.96;99947.19;5082785;28;20020;-68
2021/12/09 05:57:02;;;;;;;24.73;12.48;;;;;;;0.27;78.65;99945.31;5081308;28;20020;-67
2021/12/09 05:59:28;;;;;;;23.65;11.93;;;;;;;0.27;78.84;99936.78;5082613;28;20021;-67
2021/12/09 06:01:53;;;;;;;28.77;13.70;;;;;;;0.30;78.88;99940.28;5082627;28;20028;-66
2021/12/09 06:04:21;;;;;;;21.30;10.13;;;;;;;0.28;78.88;99948.72;5080907;28;20020;-66
2021/12/09 06:06:47;;;;;;;22.90;12.35;;;;;;;0.26;78.83;99942.72;5082324;28;20024;-66
2021/12/09 06:09:12;;;;;;;26.38;13.00;;;;;;;0.30;78.97;99945.41;5082147;28;20048;-67
2021/12/09 06:11:46;;;;;;;26.15;13.55;;;;;;;0.34;78.87;99943.75;5082457;28;20016;-67
2021/12/09 06:14:11;;;;;;;14.25;6.03;;;;;;;0.34;78.91;99947.19;5082673;28;20024;-67
2021/12/09 06:16:36;;;;;;;13.63;6.72;;;;;;;0.43;78.43;99949.09;5084483;28;20030;-66
2021/12/09 06:19:04;;;;;;;22.50;9.25;;;;;;;0.31;78.46;99946.25;5086223;28;20039;-66
2021/12/09 06:21:30;;;;;;;23.05;10.82;;;;;;;0.33;78.37;99935.25;5086159;28;20424;-67
2021/12/09 06:23:57;;;;;;;28.38;12.70;;;;;;;0.32;78.86;99948.00;5086167;28;20017;-66
2021/12/09 06:26:23;;;;;;;22.42;11.07;;;;;;;0.35;78.90;99953.19;5086063;28;20028;-67
2021/12/09 06:28:49;;;;;;;24.17;11.93;;;;;;;0.34;79.05;99954.84;5086086;28;20033;-66
2021/12/09 06:31:16;;;;;;;19.80;8.70;;;;;;;0.56;78.05;99949.44;5086014;28;20094;-66
2021/12/09 06:33:41;;;;;;;25.60;11.30;;;;;;;0.32;78.66;99941.19;5085998;28;20074;-67
2021/12/09 06:36:07;;;;;;;18.65;8.68;;;;;;;0.41;78.61;99945.66;5085699;28;20036;-66
2021/12/09 06:38:33;;;;;;;16.38;8.90;;;;;;;0.39;78.49;99941.31;5085861;28;20064;-67
2021/12/09 06:40:59;;;;;;;20.48;10.23;;;;;;;0.28;78.74;99935.94;5085749;28;20095;-67
2021/12/09 06:43:25;;;;;;;18.35;7.70;;;;;;;0.27;79.22;99939.34;5085937;28;20030;-67
2021/12/09 06:45:53;;;;;;;13.85;7.40;;;;;;;0.32;79.05;99961.59;5085892;28;20020;-67
2021/12/09 06:48:18;;;;;;;25.25;10.88;;;;;;;0.35;78.79;99961.69;5085671;28;20035;-67
2021/12/09 06:50:44;;;;;;;17.15;9.07;;;;;;;0.48;78.35;99967.97;5085496;28;20020;-67
2021/12/09 06:53:11;;;;;;;15.82;9.02;;;;;;;0.32;78.43;99945.44;5085885;28;20279;-67
2021/12/09 06:55:38;;;;;;;19.27;10.05;;;;;;;0.40;78.76;99956.69;5085545;28;20024;-67
2021/12/09 06:58:03;;;;;;;19.63;9.35;;;;;;;0.40;78.60;99953.28;5084242;28;20102;-66
2021/12/09 07:00:31;;;;;;;11.35;5.18;;;;;;;0.27;78.86;99924.00;5085644;28;20032;-68
2021/12/09 07:02:56;;;;;;;23.05;10.48;;;;;;;0.32;79.11;99942.88;5085582;28;20538;-68
2021/12/09 07:05:24;;;;;;;16.98;8.18;;;;;;;0.29;79.23;99940.25;5085158;28;20033;-67
2021/12/09 07:07:50;;;;;;;20.38;10.95;;;;;;;0.38;79.01;99942.16;5085378;28;20064;-67
2021/12/09 07:10:16;;;;;;;22.08;10.73;;;;;;;0.25;79.09;99926.53;5085385;28;20024;-67
2021/12/09 07:12:42;;;;;;;25.33;11.52;;;;;;;0.34;79.24;99943.75;5085739;28;20021;-67
2021/12/09 07:15:10;;;;;;;21.40;9.90;;;;;;;0.41;78.83;99949.91;5083843;28;20117;-66
2021/12/09 07:17:35;;;;;;;25.85;12.88;;;;;;;0.32;79.18;99938.63;5085083;28;20028;-67
2021/12/09 07:20:05;;;;;;;21.23;10.68;;;;;;;0.33;79.13;99919.94;5085186;28;20143;-66
2021/12/09 07:22:30;;;;;;;21.95;10.77;;;;;;;0.39;79.34;99944.75;5083928;28;20012;-66
2021/12/09 07:24:56;;;;;;;23.90;11.23;;;;;;;0.35;79.29;99942.97;5085171;28;20035;-67
2021/12/09 07:27:21;;;;;;;34.78;13.07;;;;;;;0.39;79.26;99943.88;5083796;28;20718;-67
2021/12/09 07:29:46;;;;;;;16.90;7.40;;;;;;;0.34;79.30;99936.97;5085011;28;20016;-67
2021/12/09 07:32:12;;;;;;;20.75;9.88;;;;;;;0.33;79.46;99955.69;5085142;28;20016;-67
2021/12/09 07:34:37;;;;;;;14.63;6.93;;;;;;;0.40;79.53;99960.97;5083733;28;20416;-67
2021/12/09 07:37:04;;;;;;;19.05;8.63;;;;;;;0.40;79.36;99969.47;5083607;28;20098;-67
2021/12/09 07:39:32;;;;;;;15.05;7.25;;;;;;;0.35;79.64;99963.41;5084998;28;20024;-67
2021/12/09 07:41:59;;;;;;;19.02;10.05;;;;;;;0.35;79.86;99965.94;5084825;28;20024;-67
2021/12/09 07:44:26;;;;;;;22.75;8.75;;;;;;;0.39;79.67;99969.41;5084788;28;20020;-67
2021/12/09 07:46:52;;;;;;;14.82;6.18;;;;;;;0.36;79.89;99949.78;5084624;28;20051;-67
2021/12/09 07:49:19;;;;;;;19.98;9.35;;;;;;;0.26;79.79;99929.97;5084712;28;20031;-67
2021/12/09 07:51:44;;;;;;;22.35;10.05;;;;;;;0.30;79.75;99942.84;5082991;28;20020;-67
2021/12/09 07:54:10;;;;;;;22.65;9.68;;;;;;;0.32;79.63;99933.50;5084558;28;20070;-68
2021/12/09 07:56:35;;;;;;;8.55;4.93;;;;;;;0.44;79.55;99947.44;5084341;28;20020;-67
2021/12/09 07:59:00;;;;;;;17.70;7.55;;;;;;;0.43;79.29;99938.03;5084598;28;20505;-66
2021/12/09 08:01:26;;;;;;;5.25;3.30;;;;;;;0.34;79.45;99934.44;5084563;28;20017;-66
2021/12/09 08:03:51;;;;;;;12.07;5.88;;;;;;;0.53;78.49;99936.59;5084423;28;20074;-67
2021/12/09 08:06:17;;;;;;;18.27;8.95;;;;;;;0.33;79.19;99939.50;5083995;28;20032;-66
2021/12/09 08:08:42;;;;;;;19.20;7.47;;;;;;;0.40;78.85;99941.38;5084180;28;20044;-65
2021/12/09 08:11:07;;;;;;;18.45;8.40;;;;;;;0.35;79.22;99938.69;5084081;28;20040;-67
2021/12/09 08:13:34;;;;;;;16.23;6.15;;;;;;;0.42;78.69;99952.50;5084428;28;20028;-67
2021/12/09 08:16:00;;;;;;;14.70;6.25;;;;;;;0.33;78.89;99942.06;5083892;28;20034;-66
2021/12/09 08:18:32;;;;;;;17.27;7.78;;;;;;;0.21;79.37;99938.34;5084059;28;20101;-67
2021/12/09 08:21:00;;;;;;;11.65;4.82;;;;;;;0.32;78.19;99925.00;5083725;28;20513;-66
2021/12/09 08:23:26;;;;;;;11.98;5.35;;;;;;;0.36;78.54;99947.22;5084013;28;20020;-66
2021/12/09 08:25:54;;;;;;;8.30;5.15;;;;;;;0.43;78.38;99959.31;5083907;28;20030;-65
2021/12/09 08:28:20;;;;;;;17.90;7.32;;;;;;;0.31;78.98;99959.00;5082435;28;20119;-67
2021/12/09 08:30:46;;;;;;;16.77;4.88;;;;;;;0.49;78.13;99956.06;5082187;28;20088;-66
2021/12/09 08:33:11;;;;;;;14.77;5.38;;;;;;;0.34;78.63;99967.63;5083805;28;20020;-66
2021/12/09 08:35:37;;;;;;;12.65;6.05;;;;;;;0.41;78.16;99961.00;5083436;28;20028;-66
2021/12/09 08:38:07;;;;;;;16.33;6.85;;;;;;;0.38;78.37;99970.25;5083668;28;20023;-67
2021/12/09 08:40:33;;;;;;;11.55;5.00;;;;;;;0.35;78.47;99965.94;5083776;28;20020;-66
2021/12/09 08:42:59;;;;;;;14.65;7.05;;;;;;;0.36;78.26;99958.31;5083600;28;20048;-67
2021/12/09 08:45:25;;;;;;;11.75;5.05;;;;;;;0.32;78.81;99966.72;5083588;28;20051;-66
2021/12/09 08:47:50;;;;;;;11.30;5.75;;;;;;;0.35;78.42;99963.41;5083294;28;20079;-67
2021/12/09 08:50:20;;;;;;;14.77;7.05;;;;;;;0.34;78.72;99974.41;5083373;28;20032;-66
2021/12/09 08:52:48;;;;;;;15.82;5.90;;;;;;;0.41;78.50;99978.88;5083824;28;20021;-67
2021/12/09 08:55:13;;;;;;;9.07;3.83;;;;;;;0.45;78.02;99980.66;5083371;28;20020;-67
2021/12/09 08:57:39;;;;;;;14.88;5.90;;;;;;;0.36;78.38;99980.44;5083321;28;20032;-67
2021/12/09 09:00:08;;;;;;;10.40;5.15;;;;;;;0.35;78.54;99981.28;5083604;28;20017;-67
2021/12/09 09:02:33;;;;;;;15.95;6.28;;;;;;;0.33;78.85;99983.78;5082854;28;20377;-67
2021/12/09 09:04:59;;;;;;;11.50;6.22;;;;;;;0.31;78.91;99982.00;5083111;28;20263;-66
2021/12/09 09:07:24;;;;;;;9.48;3.92;;;;;;;0.38;78.90;99977.91;5081757;28;20449;-67
2021/12/09 09:09:49;;;;;;;13.27;7.00;;;;;;;0.32;78.90;99966.72;5083561;28;20108;-67
2021/12/09 09:12:16;;;;;;;15.65;5.75;;;;;;;0.36;79.06;99977.88;5083512;28;20028;-65
2021/12/09 09:14:42;;;;;;;11.98;4.43;;;;;;;0.38;78.85;99967.69;5083580;28;20017;-66
2021/12/09 09:17:08;;;;;;;13.00;6.00;;;;;;;0.46;78.10;99959.41;5083188;28;20031;-66
2021/12/09 09:19:34;;;;;;;17.88;5.65;;;;;;;0.37;78.26;99948.94;5083357;28;20067;-66
2021/12/09 09:22:00;;;;;;;14.20;5.90;;;;;;;0.33;78.67;99953.13;5081546;28;20443;-67
2021/12/09 09:24:25;;;;;;;14.82;6.30;;;;;;;0.38;78.97;99950.69;5082961;28;20048;-66
2021/12/09 09:26:51;;;;;;;14.23;5.70;;;;;;;0.44;78.44;99937.22;5083077;28;20020;-67
2021/12/09 09:29:16;;;;;;;7.70;3.25;;;;;;;0.44;78.62;99927.88;5083290;28;20075;-66
2021/12/09 09:31:43;;;;;;;8.63;3.25;;;;;;;0.40;78.61;99933.72;5082980;28;20028;-66
2021/12/09 09:34:11;;;;;;;12.70;6.40;;;;;;;0.36;78.47;99926.81;5083201;28;20380;-66
2021/12/09 09:36:39;;;;;;;15.77;5.75;;;;;;;0.35;78.93;99933.59;5082768;28;20031;-66
2021/12/09 09:39:19;;;;;;;14.38;6.32;;;;;;;0.42;78.51;99924.41;5083075;28;20020;-66
2021/12/09 09:42:01;;;;;;;12.25;4.97;;;;;;;0.43;78.53;99927.84;5081551;28;20112;-66
2021/12/09 09:44:33;;;;;;;9.25;4.75;;;;;;;0.39;79.00;99932.00;5083005;28;20070;-67
2021/12/09 09:47:03;;;;;;;;;;;;;;;0.41;78.81;99932.91;5083148;28;20502;-66
2021/12/09 09:49:30;;;;;;;13.55;5.50;;;;;;;0.38;78.98;99930.28;5082828;28;19908;-66
2021/12/09 09:52:00;;;;;;;15.15;6.15;;;;;;;0.38;78.99;99922.59;5085369;28;20040;-66
2021/12/09 09:54:26;;;;;;;14.88;5.60;;;;;;;0.45;78.97;99933.81;5086892;28;20031;-68
2021/12/09 09:56:51;;;;;;;10.98;5.18;;;;;;;0.45;79.26;99944.03;5086830;28;20028;-67
2021/12/09 09:59:17;;;;;;;9.32;4.55;;;;;;;0.42;79.20;99923.53;5086769;28;20028;-67
2021/12/09 10:01:44;;;;;;;12.98;5.80;;;;;;;0.44;78.84;99927.00;5086703;28;20028;-67
2021/12/09 10:04:11;;;;;;;17.75;5.90;;;;;;;0.53;78.40;99939.16;5086742;28;20082;-67
2021/12/09 10:06:38;;;;;;;14.30;5.57;;;;;;;0.51;78.72;99922.91;5086484;28;20577;-67
2021/12/09 10:09:05;;;;;;;16.38;7.00;;;;;;;0.49;78.84;99928.84;5086391;28;20074;-68
2021/12/09 10:11:31;;;;;;;10.77;5.18;;;;;;;0.54;78.50;99923.88;5086556;28;20025;-67
2021/12/09 10:14:12;;;;;;;8.07;4.65;;;;;;;0.51;78.30;99918.69;5086626;28;20038;-67
2021/12/09 10:16:42;;;;;;;15.32;7.10;;;;;;;0.51;78.59;99933.13;5086503;28;20020;-67
2021/12/09 10:19:27;;;;;;;9.13;5.35;;;;;;;0.52;78.81;99930.63;5086675;28;20082;-67
2021/12/09 10:22:05;;;;;;;8.77;4.13;;;;;;;0.54;78.16;99921.31;5085851;28;20076;-67
2021/12/09 10:24:31;;;;;;;7.45;3.55;;;;;;;0.52;78.73;99922.94;5086390;28;20078;-67
2021/12/09 10:26:57;;;;;;;13.43;4.85;;;;;;;0.54;78.54;99918.75;5086223;28;20029;-66
2021/12/09 10:29:29;;;;;;;13.02;4.65;;;;;;;0.54;78.94;99913.66;5086583;28;20032;-66
2021/12/09 10:31:58;;;;;;;;;;;;;;;0.64;78.49;99918.97;5086778;28;20028;-66
2021/12/09 10:34:40;;;;;;;14.00;5.85;;;;;;;0.59;78.56;99916.31;5086432;28;19908;-66
2021/12/09 10:37:22;;;;;;;11.95;6.35;;;;;;;0.58;78.74;99927.34;5086352;28;20020;-66
2021/12/09 10:40:06;;;;;;;14.02;6.40;;;;;;;0.61;79.21;99929.97;5086255;28;20047;-67
2021/12/09 10:42:44;;;;;;;12.15;5.85;;;;;;;0.68;78.61;99931.84;5086157;28;20017;-66
2021/12/09 10:45:23;;;;;;;9.57;5.20;;;;;;;0.59;79.09;99923.97;5086157;28;20099;-66
2021/12/09 10:47:59;;;;;;;10.55;4.68;;;;;;;0.68;79.28;99923.31;5086175;28;20023;-66
2021/12/09 10:50:37;;;;;;;12.45;5.25;;;;;;;0.80;78.22;99922.75;5085962;28;20056;-66
2021/12/09 10:55:57;;;;;;;10.10;5.22;;;;;;;0.69;78.34;99912.25;5086320;28;20021;-66
2021/12/09 10:58:34;;;;;;;14.13;6.07;;;;;;;0.71;78.32;99906.38;5086140;28;20070;-66
2021/12/09 11:01:11;;;;;;;6.10;2.63;;;;;;;0.81;78.08;99902.34;5069575;28;20092;-66
2021/12/09 11:03:41;;;;;;;5.30;3.05;;;;;;;0.68;78.47;99893.53;5085762;28;20031;-66
2021/12/09 11:06:12;;;;;;;13.07;5.15;;;;;;;0.66;79.10;99887.50;5085692;28;20035;-66
2021/12/09 11:08:40;;;;;;;10.20;5.55;;;;;;;0.73;79.17;99881.75;5085488;28;20044;-67
2021/12/09 11:11:12;;;;;;;6.85;3.55;;;;;;;0.81;78.41;99873.38;5085403;28;20083;-66
2021/12/09 11:13:52;;;;;;;8.35;4.15;;;;;;;0.82;78.48;99885.31;5085793;28;20016;-66
2021/12/09 11:16:27;;;;;;;9.82;4.78;;;;;;;0.78;78.33;99881.84;5085474;28;20020;-66
2021/12/09 11:19:06;;;;;;;11.88;5.80;;;;;;;0.81;78.04;99871.69;5085719;28;20029;-66
2021/12/09 11:21:37;;;;;;;12.52;5.18;;;;;;;0.89;77.28;99884.63;5085173;28;20020;-67
2021/12/09 11:24:12;;;;;;;7.68;3.58;;;;;;;0.94;76.84;99865.13;5085498;28;20044;-65
2021/12/09 11:29:29;;;;;;;7.20;3.22;;;;;;;0.83;76.95;99858.94;5085332;28;20040;-66
2021/12/09 11:32:13;;;;;;;10.05;4.25;;;;;;;0.80;77.33;99861.44;5085091;28;20013;-65
2021/12/09 11:34:50;;;;;;;9.77;4.20;;;;;;;0.79;77.45;99863.13;5085240;28;20085;-66
2021/12/09 11:40:06;;;;;;;9.05;5.75;;;;;;;0.77;77.83;99854.53;5085219;28;20111;-67